Time;durP1;ratioP1;P1;durP2;ratioP2;P2;SDS_P1;SDS_P2;PMS_P1;PMS_P2;Temp;Humidity;BMP_temperature;BMP_pressure;BME280_temperature;BME280_humidity;BME280_pressure;Samples;Min_cycle;Max_cycle;Signal;HPM_P1;HPM_P2
2022/10/01 00:00:50;;;;;;;0.97;0.97;;;;;;;7.39;100.00;99774.63;5040118;28;20513;-54
2022/10/01 00:03:18;;;;;;;3.00;0.90;;;;;;;7.28;100.00;99768.75;5035855;28;20465;-54
2022/10/01 00:05:45;;;;;;;1.53;1.10;;;;;;;7.46;100.00;99769.22;5038169;28;20841;-54
2022/10/01 00:08:15;;;;;;;0.60;0.50;;;;;;;7.43;100.00;99762.25;5042803;28;20809;-54
2022/10/01 00:10:42;;;;;;;0.90;0.90;;;;;;;7.40;100.00;99765.84;5041070;28;21041;-53
2022/10/01 00:13:10;;;;;;;1.23;0.70;;;;;;;7.24;100.00;99768.84;5035836;28;20457;-54
2022/10/01 00:15:40;;;;;;;1.23;1.13;;;;;;;7.07;100.00;99766.59;5036843;28;20480;-54
2022/10/01 00:18:09;;;;;;;3.90;0.70;;;;;;;7.10;100.00;99767.41;5042319;28;20495;-54
2022/10/01 00:20:40;;;;;;;3.60;0.93;;;;;;;7.17;100.00;99756.69;5042556;28;20547;-54
2022/10/01 00:23:07;;;;;;;1.07;0.97;;;;;;;7.24;100.00;99761.78;5042025;28;20451;-54
2022/10/01 00:25:33;;;;;;;0.57;0.43;;;;;;;7.12;100.00;99752.38;5042266;28;20471;-53
2022/10/01 00:28:00;;;;;;;0.73;0.73;;;;;;;7.25;100.00;99750.31;5035865;28;20451;-54
2022/10/01 00:30:27;;;;;;;4.23;1.03;;;;;;;7.26;100.00;99736.19;5036215;28;20517;-53
2022/10/01 00:32:54;;;;;;;0.53;0.50;;;;;;;7.44;100.00;99740.16;5040959;28;20456;-54
2022/10/01 00:35:21;;;;;;;36.77;2.60;;;;;;;7.47;100.00;99739.22;5042293;28;21006;-54
2022/10/01 00:37:52;;;;;;;0.80;0.63;;;;;;;7.47;100.00;99726.88;5036874;28;20522;-54
2022/10/01 00:40:20;;;;;;;0.53;0.50;;;;;;;7.34;100.00;99728.94;5035500;28;20937;-54
2022/10/01 00:42:47;;;;;;;1.40;1.30;;;;;;;7.49;100.00;99727.69;5039877;28;20452;-54
2022/10/01 00:45:15;;;;;;;0.93;0.60;;;;;;;7.46;100.00;99729.56;5043754;28;20471;-54
2022/10/01 00:47:50;;;;;;;1.27;1.17;;;;;;;7.50;100.00;99728.56;5048896;28;20450;-54
2022/10/01 00:50:29;;;;;;;1.10;0.80;;;;;;;7.56;100.00;99723.13;5035524;28;20553;-54
2022/10/01 00:53:02;;;;;;;0.40;0.30;;;;;;;7.57;100.00;99723.09;5035529;28;20463;-54
2022/10/01 00:55:55;;;;;;;1.17;1.10;;;;;;;7.64;100.00;99718.50;5042021;28;20853;-54
2022/10/01 00:58:24;;;;;;;0.80;0.80;;;;;;;7.59;100.00;99715.13;5039019;28;20503;-54
2022/10/01 01:00:54;;;;;;;4.57;0.70;;;;;;;7.62;100.00;99717.69;5038452;28;20454;-54
2022/10/01 01:03:21;;;;;;;3.17;0.60;;;;;;;7.59;100.00;99715.13;5035074;28;21002;-54
2022/10/01 01:05:49;;;;;;;0.70;0.60;;;;;;;7.61;100.00;99711.53;5038221;28;20835;-55
2022/10/01 01:08:16;;;;;;;0.97;0.97;;;;;;;7.59;100.00;99715.13;5041932;28;20459;-54
2022/10/01 01:10:51;;;;;;;0.73;0.70;;;;;;;7.74;100.00;99704.13;5039752;28;20454;-54
2022/10/01 01:13:42;;;;;;;0.83;0.83;;;;;;;7.67;100.00;99706.06;5034943;28;20450;-54
2022/10/01 01:16:22;;;;;;;2.70;0.50;;;;;;;7.82;100.00;99707.47;5035184;28;20455;-54
2022/10/01 01:19:02;;;;;;;1.07;0.60;;;;;;;7.83;100.00;99695.97;5037718;28;21237;-54
2022/10/01 01:21:33;;;;;;;0.87;0.87;;;;;;;7.92;100.00;99690.41;5042101;28;20982;-54
2022/10/01 01:24:02;;;;;;;0.90;0.90;;;;;;;7.87;100.00;99694.97;5041601;28;20521;-55
2022/10/01 01:26:58;;;;;;;1.40;1.00;;;;;;;7.82;100.00;99688.06;5022372;28;20461;-54
2022/10/01 01:29:28;;;;;;;0.60;0.60;;;;;;;7.91;100.00;99685.16;5028326;28;20520;-55
2022/10/01 01:32:01;;;;;;;0.80;0.80;;;;;;;7.96;100.00;99677.97;5037235;28;20482;-55
2022/10/01 01:34:31;;;;;;;0.80;0.80;;;;;;;7.95;100.00;99671.81;5044071;28;20471;-55
2022/10/01 01:37:04;;;;;;;0.60;0.60;;;;;;;7.99;100.00;99673.47;5035293;28;20541;-54
2022/10/01 01:39:33;;;;;;;0.43;0.40;;;;;;;8.00;100.00;99675.19;5041511;28;20517;-54
2022/10/01 01:42:05;;;;;;;0.87;0.80;;;;;;;8.11;100.00;99672.25;5046100;28;20458;-55
2022/10/01 01:44:41;;;;;;;0.77;0.60;;;;;;;8.13;100.00;99665.13;5041120;28;21057;-55
2022/10/01 01:47:09;;;;;;;3.17;1.10;;;;;;;8.22;100.00;99671.91;5039004;28;20532;-55
2022/10/01 01:49:38;;;;;;;0.47;0.30;;;;;;;8.20;100.00;99657.84;5041500;28;20459;-54
2022/10/01 01:52:13;;;;;;;2.40;1.40;;;;;;;8.21;100.00;99659.59;5043260;28;20956;-55
2022/10/01 01:54:46;;;;;;;0.57;0.40;;;;;;;8.23;100.00;99657.78;5044911;28;20482;-54
2022/10/01 01:57:15;;;;;;;0.97;0.90;;;;;;;8.36;100.00;99660.94;5044995;28;20549;-55
2022/10/01 01:59:41;;;;;;;0.60;0.60;;;;;;;8.42;100.00;99644.91;5045383;28;20524;-54
2022/10/01 02:02:18;;;;;;;0.50;0.40;;;;;;;8.64;100.00;99645.97;5039669;28;20454;-54
2022/10/01 02:04:53;;;;;;;1.07;1.03;;;;;;;8.92;100.00;99640.69;5038181;28;21046;-55
2022/10/01 02:07:39;;;;;;;0.60;0.53;;;;;;;9.10;100.00;99639.19;5042807;28;20499;-54
2022/10/01 02:10:14;;;;;;;0.67;0.60;;;;;;;9.20;100.00;99640.63;5045352;28;20459;-54
2022/10/01 02:13:05;;;;;;;0.63;0.50;;;;;;;9.44;100.00;99633.59;5045470;28;20883;-55
2022/10/01 02:16:03;;;;;;;0.67;0.63;;;;;;;9.66;100.00;99647.00;5043195;28;20470;-54
2022/10/01 02:18:42;;;;;;;1.07;0.97;;;;;;;9.80;100.00;99644.72;5028505;28;21073;-54
2022/10/01 02:21:26;;;;;;;0.70;0.70;;;;;;;9.87;100.00;99638.28;5038104;28;20442;-54
2022/10/01 02:24:00;;;;;;;0.70;0.50;;;;;;;9.90;100.00;99630.22;5038553;28;20475;-54
2022/10/01 02:26:30;;;;;;;0.90;0.90;;;;;;;9.95;100.00;99622.94;5026831;28;20473;-55
2022/10/01 02:29:02;;;;;;;2.20;1.00;;;;;;;9.88;100.00;99624.09;5038131;28;20452;-55
2022/10/01 02:31:29;;;;;;;10.13;1.10;;;;;;;9.92;100.00;99614.22;5042593;28;20491;-54
2022/10/01 02:33:59;;;;;;;1.17;0.77;;;;;;;10.04;100.00;99619.94;5034228;28;20471;-54
2022/10/01 02:36:27;;;;;;;0.40;0.40;;;;;;;9.96;100.00;99616.69;5041753;28;20530;-54
2022/10/01 02:38:55;;;;;;;1.03;1.03;;;;;;;10.02;100.00;99612.97;5044533;28;20499;-55
2022/10/01 02:41:27;;;;;;;1.90;1.70;;;;;;;10.10;100.00;99610.88;5042196;28;20998;-55
2022/10/01 02:44:12;;;;;;;0.80;0.70;;;;;;;10.16;100.00;99617.75;5037512;28;20470;-55
2022/10/01 02:46:47;;;;;;;1.60;1.53;;;;;;;10.14;100.00;99612.47;5050587;28;20508;-54
2022/10/01 02:49:14;;;;;;;0.63;0.63;;;;;;;10.16;100.00;99609.78;5027098;28;20451;-54
2022/10/01 02:52:38;;;;;;;0.77;0.70;;;;;;;10.08;100.00;99602.09;5035210;28;21022;-55
2022/10/01 02:55:18;;;;;;;0.60;0.60;;;;;;;10.10;100.00;99597.59;4950821;29;20498;-55
2022/10/01 02:57:44;;;;;;;0.60;0.47;;;;;;;10.15;100.00;99592.13;5033684;28;20975;-55
2022/10/01 03:00:14;;;;;;;0.67;0.67;;;;;;;10.20;100.00;99593.69;5037798;28;20454;-56
2022/10/01 03:02:40;;;;;;;1.07;0.80;;;;;;;10.20;100.00;99593.69;5039158;28;20501;-56
2022/10/01 03:05:07;;;;;;;0.67;0.47;;;;;;;10.31;100.00;99598.63;5044622;28;20573;-56
2022/10/01 03:07:35;;;;;;;0.77;0.77;;;;;;;10.45;100.00;99603.38;5044019;28;20451;-55
2022/10/01 03:10:03;;;;;;;0.60;0.40;;;;;;;10.51;100.00;99598.69;5037799;28;20533;-56
2022/10/01 03:12:29;;;;;;;0.50;0.40;;;;;;;10.56;100.00;99593.22;5038672;28;20530;-56
2022/10/01 03:14:56;;;;;;;0.60;0.50;;;;;;;10.54;100.00;99593.25;5044385;28;20476;-55
2022/10/01 03:17:23;;;;;;;0.73;0.60;;;;;;;10.51;100.00;99601.34;5043357;28;20910;-56
2022/10/01 03:19:49;;;;;;;4.40;1.40;;;;;;;10.31;100.00;99602.13;5037397;28;20451;-56
2022/10/01 03:22:21;;;;;;;0.80;0.77;;;;;;;10.17;100.00;99595.59;5038506;28;20456;-56
2022/10/01 03:24:48;;;;;;;0.73;0.53;;;;;;;10.13;100.00;99591.28;5026527;28;20467;-55
2022/10/01 03:27:16;;;;;;;1.07;1.03;;;;;;;10.02;100.00;99587.28;5044255;28;20455;-56
2022/10/01 03:29:43;;;;;;;1.17;0.93;;;;;;;9.85;100.00;99578.19;5020432;28;20933;-54
2022/10/01 03:32:10;;;;;;;1.83;1.60;;;;;;;9.93;100.00;99578.78;5036973;28;20455;-55
2022/10/01 03:34:36;;;;;;;0.93;0.93;;;;;;;10.08;100.00;99576.41;5046685;28;20471;-56
2022/10/01 03:37:03;;;;;;;0.80;0.77;;;;;;;10.19;100.00;99568.03;5019113;28;21014;-55
2022/10/01 03:39:30;;;;;;;2.20;1.50;;;;;;;10.26;100.00;99571.34;5042312;28;20462;-56
2022/10/01 03:41:56;;;;;;;1.77;1.40;;;;;;;10.34;100.00;99571.94;5043477;28;21025;-51
2022/10/01 03:44:23;;;;;;;1.70;0.70;;;;;;;10.36;100.00;99567.41;5038945;28;20474;-53
2022/10/01 03:46:49;;;;;;;0.70;0.70;;;;;;;10.33;100.00;99560.44;5050271;28;20446;-54
2022/10/01 03:49:16;;;;;;;0.57;0.57;;;;;;;10.53;100.00;99569.41;5041977;28;20525;-53
2022/10/01 03:51:44;;;;;;;1.43;1.00;;;;;;;10.52;100.00;99565.88;5041515;28;20460;-54
2022/10/01 03:54:10;;;;;;;1.40;0.90;;;;;;;10.63;100.00;99561.00;5038575;28;21073;-53
2022/10/01 03:56:39;;;;;;;1.07;0.97;;;;;;;10.65;100.00;99555.63;5036574;28;20463;-53
2022/10/01 03:59:06;;;;;;;0.93;0.80;;;;;;;10.62;100.00;99558.41;5040858;28;20565;-54
2022/10/01 04:01:32;;;;;;;0.80;0.73;;;;;;;10.71;100.00;99562.50;5043231;28;20934;-53
2022/10/01 04:03:59;;;;;;;1.37;1.27;;;;;;;10.80;100.00;99559.44;5038955;28;20497;-54
2022/10/01 04:06:26;;;;;;;1.73;0.67;;;;;;;10.80;100.00;99560.31;5036359;28;20451;-52
2022/10/01 04:08:52;;;;;;;0.50;0.50;;;;;;;10.83;100.00;99564.66;5040436;28;20959;-54
2022/10/01 04:11:18;;;;;;;1.70;1.13;;;;;;;10.77;100.00;99551.59;5042866;28;20450;-54
2022/10/01 04:13:45;;;;;;;3.90;0.73;;;;;;;10.66;100.00;99549.38;5039051;28;20964;-54
2022/10/01 04:16:11;;;;;;;0.83;0.80;;;;;;;10.60;100.00;99544.31;5036357;28;20454;-54
2022/10/01 04:18:38;;;;;;;3.90;0.93;;;;;;;10.57;100.00;99545.31;5039765;28;20988;-55
2022/10/01 04:21:04;;;;;;;5.60;1.00;;;;;;;10.61;100.00;99533.63;5043397;28;20455;-54
2022/10/01 04:23:31;;;;;;;0.40;0.40;;;;;;;10.73;100.00;99531.41;5039102;28;20481;-54
2022/10/01 04:25:59;;;;;;;0.40;0.40;;;;;;;10.83;100.00;99530.97;5035872;28;20481;-55
2022/10/01 04:28:26;;;;;;;0.77;0.50;;;;;;;10.74;100.00;99530.47;5039465;28;21275;-54
2022/10/01 04:31:23;;;;;;;0.73;0.73;;;;;;;10.74;100.00;99523.34;5042898;28;20455;-54
2022/10/01 04:33:39;;;;;;;0.80;0.80;;;;;;;10.70;100.00;99539.50;5042105;28;20509;-54
2022/10/01 04:36:05;;;;;;;1.07;1.07;;;;;;;10.64;100.00;99520.19;5039279;28;20451;-53
2022/10/01 04:38:32;;;;;;;0.63;0.60;;;;;;;10.76;100.00;99515.31;5042481;28;20540;-52
2022/10/01 04:40:59;;;;;;;0.80;0.80;;;;;;;10.84;100.00;99523.84;5035993;28;20898;-54
2022/10/01 04:43:25;;;;;;;0.60;0.60;;;;;;;10.73;100.00;99526.94;5018668;28;20455;-54
2022/10/01 04:45:51;;;;;;;1.00;0.80;;;;;;;10.77;100.00;99509.06;5041990;28;20470;-54
2022/10/01 04:48:18;;;;;;;0.70;0.70;;;;;;;10.75;100.00;99479.88;5042217;28;20500;-54
2022/10/01 04:50:44;;;;;;;0.60;0.60;;;;;;;10.79;100.00;99465.53;5036218;28;20504;-55
2022/10/01 04:53:11;;;;;;;1.10;1.00;;;;;;;10.83;100.00;99460.97;5033543;28;20463;-53
2022/10/01 04:55:37;;;;;;;0.50;0.50;;;;;;;10.78;100.00;99442.53;5041673;28;20483;-55
2022/10/01 04:58:04;;;;;;;0.50;0.40;;;;;;;10.81;100.00;99434.41;5042293;28;20489;-54
2022/10/01 05:00:30;;;;;;;0.63;0.63;;;;;;;10.93;100.00;99439.22;5036178;28;20455;-54
2022/10/01 05:02:57;;;;;;;0.60;0.60;;;;;;;11.18;100.00;99472.72;5035312;28;20960;-54
2022/10/01 05:05:26;;;;;;;1.23;0.63;;;;;;;11.10;100.00;99457.09;5041261;28;20471;-55
2022/10/01 05:07:52;;;;;;;0.80;0.80;;;;;;;11.06;100.00;99457.28;5042187;28;21279;-54
2022/10/01 05:10:21;;;;;;;0.60;0.60;;;;;;;11.04;100.00;99459.16;5036737;28;21049;-53
2022/10/01 05:12:48;;;;;;;1.80;1.17;;;;;;;11.09;100.00;99451.81;5035168;28;20456;-54
2022/10/01 05:15:16;;;;;;;0.70;0.50;;;;;;;11.01;100.00;99457.50;5044491;28;20533;-54
2022/10/01 05:17:42;;;;;;;1.00;1.00;;;;;;;11.22;100.00;99459.19;5048657;28;20490;-54
2022/10/01 05:20:15;;;;;;;0.57;0.50;;;;;;;11.19;100.00;99459.34;5044171;28;20455;-54
2022/10/01 05:22:43;;;;;;;0.70;0.60;;;;;;;11.22;100.00;99458.34;5041721;28;20446;-54
2022/10/01 05:25:09;;;;;;;0.50;0.43;;;;;;;11.18;100.00;99462.94;5045303;28;20476;-54
2022/10/01 05:27:37;;;;;;;0.80;0.80;;;;;;;11.21;100.00;99468.13;5048671;28;20451;-54
2022/10/01 05:30:05;;;;;;;1.10;1.00;;;;;;;11.39;100.00;99476.22;5045303;28;20458;-55
2022/10/01 05:32:31;;;;;;;0.50;0.43;;;;;;;11.60;100.00;99477.03;5041928;28;20450;-55
2022/10/01 05:34:57;;;;;;;9.70;0.87;;;;;;;11.35;100.00;99479.94;5050930;28;20520;-54
2022/10/01 05:37:24;;;;;;;0.40;0.33;;;;;;;11.34;100.00;99470.22;5041802;28;20963;-54
2022/10/01 05:39:50;;;;;;;3.90;0.50;;;;;;;11.31;100.00;99473.91;5044867;28;20478;-54
2022/10/01 05:42:17;;;;;;;0.60;0.60;;;;;;;11.55;100.00;99485.25;5048547;28;20537;-55
2022/10/01 05:44:46;;;;;;;0.50;0.30;;;;;;;11.69;100.00;99479.28;5045929;28;20462;-55
2022/10/01 05:47:12;;;;;;;1.00;0.60;;;;;;;11.68;100.00;99482.88;5041799;28;20447;-55
2022/10/01 05:49:41;;;;;;;7.70;0.40;;;;;;;11.65;100.00;99486.56;5043364;28;20486;-55
2022/10/01 05:52:11;;;;;;;1.30;1.17;;;;;;;11.48;100.00;99483.78;5046384;28;20847;-54
2022/10/01 05:54:38;;;;;;;0.70;0.70;;;;;;;11.45;100.00;99479.47;5047075;28;20991;-55
2022/10/01 05:57:06;;;;;;;0.40;0.40;;;;;;;11.55;100.00;99474.59;5041379;28;21302;-55
2022/10/01 05:59:33;;;;;;;0.70;0.70;;;;;;;11.59;100.00;99478.84;5042364;28;20502;-54
2022/10/01 06:02:00;;;;;;;0.77;0.77;;;;;;;11.50;100.00;99476.59;5047714;28;20539;-54
2022/10/01 06:04:26;;;;;;;1.10;1.00;;;;;;;11.54;100.00;99481.72;5048366;28;20486;-54
2022/10/01 06:06:53;;;;;;;0.53;0.50;;;;;;;11.38;100.00;99474.50;5028354;28;20466;-55
2022/10/01 06:09:19;;;;;;;0.50;0.37;;;;;;;11.69;100.00;99472.16;5041555;28;20574;-55
2022/10/01 06:11:47;;;;;;;1.23;0.50;;;;;;;11.58;100.00;99480.63;5047611;28;20513;-55
2022/10/01 06:14:15;;;;;;;0.80;0.40;;;;;;;11.70;100.00;99475.69;5047453;28;21054;-55
2022/10/01 06:16:41;;;;;;;0.53;0.50;;;;;;;11.58;100.00;99464.66;5041943;28;20526;-54
2022/10/01 06:19:07;;;;;;;0.87;0.60;;;;;;;11.53;100.00;99457.84;5041331;28;20545;-55
2022/10/01 06:21:34;;;;;;;0.60;0.60;;;;;;;11.71;100.00;99456.13;5047404;28;20455;-55
2022/10/01 06:24:01;;;;;;;0.93;0.50;;;;;;;11.73;100.00;99449.78;5047972;28;20540;-55
2022/10/01 06:26:28;;;;;;;0.70;0.60;;;;;;;11.53;100.00;99442.72;5039314;28;20462;-54
2022/10/01 06:28:55;;;;;;;2.20;0.67;;;;;;;11.60;100.00;99453.94;5037942;28;20462;-55
2022/10/01 06:31:23;;;;;;;0.70;0.50;;;;;;;11.73;100.00;99449.78;5043502;28;20461;-55
2022/10/01 06:33:49;;;;;;;0.50;0.30;;;;;;;11.68;100.00;99448.28;5044489;28;20561;-55
2022/10/01 06:36:15;;;;;;;0.30;0.20;;;;;;;11.69;100.00;99456.19;5039881;28;20459;-55
2022/10/01 06:38:42;;;;;;;0.40;0.30;;;;;;;11.97;100.00;99452.25;5044390;28;20599;-55
2022/10/01 06:41:09;;;;;;;0.33;0.27;;;;;;;11.92;100.00;99455.13;5039773;28;20450;-55
2022/10/01 06:43:36;;;;;;;4.50;0.70;;;;;;;11.89;100.00;99444.63;5037509;28;20471;-55
2022/10/01 06:46:04;;;;;;;2.47;0.40;;;;;;;11.90;100.00;99441.00;5050476;28;21026;-55
2022/10/01 06:48:31;;;;;;;0.40;0.30;;;;;;;11.88;100.00;99442.91;5048674;28;20450;-55
2022/10/01 06:50:58;;;;;;;0.43;0.40;;;;;;;11.88;100.00;99445.56;5039756;28;20538;-55
2022/10/01 06:53:27;;;;;;;0.40;0.33;;;;;;;11.88;100.00;99447.34;5035334;28;20525;-56
2022/10/01 06:55:54;;;;;;;0.50;0.30;;;;;;;12.03;100.00;99455.47;5041553;28;20514;-54
2022/10/01 06:58:25;;;;;;;0.47;0.43;;;;;;;11.67;100.00;99460.72;5043960;28;20840;-55
2022/10/01 07:00:57;;;;;;;0.60;0.60;;;;;;;11.72;100.00;99447.19;5040668;28;20451;-56
2022/10/01 07:03:24;;;;;;;0.67;0.50;;;;;;;11.72;100.00;99439.19;5037071;28;20451;-55
2022/10/01 07:05:51;;;;;;;0.40;0.37;;;;;;;11.62;100.00;99408.63;5039136;28;20976;-55
2022/10/01 07:08:17;;;;;;;24.77;0.40;;;;;;;11.67;100.00;99423.47;5043972;28;20513;-55
2022/10/01 07:10:48;;;;;;;0.30;0.20;;;;;;;11.66;100.00;99426.19;5042036;28;20501;-54
2022/10/01 07:13:17;;;;;;;0.60;0.40;;;;;;;11.76;100.00;99411.50;5036848;28;20459;-54
2022/10/01 07:15:44;;;;;;;0.60;0.47;;;;;;;11.69;100.00;99402.09;5038045;28;20462;-55
2022/10/01 07:18:12;;;;;;;0.30;0.20;;;;;;;11.72;100.00;99404.59;5043198;28;20541;-54
2022/10/01 07:20:39;;;;;;;0.30;0.20;;;;;;;11.75;100.00;99412.44;5042680;28;20504;-54
2022/10/01 07:23:09;;;;;;;0.30;0.20;;;;;;;11.86;100.00;99412.81;5036679;28;20486;-54
2022/10/01 07:25:37;;;;;;;0.53;0.40;;;;;;;11.81;100.00;99418.38;5036559;28;20552;-54
2022/10/01 07:28:05;;;;;;;0.50;0.30;;;;;;;11.92;100.00;99417.84;5035631;28;20484;-54
2022/10/01 07:30:32;;;;;;;0.40;0.30;;;;;;;11.93;100.00;99414.25;5037861;28;20936;-54
2022/10/01 07:32:59;;;;;;;0.40;0.30;;;;;;;11.92;100.00;99431.16;5030311;28;20459;-54
2022/10/01 07:35:25;;;;;;;0.30;0.20;;;;;;;11.70;100.00;99428.63;5043134;28;20482;-54
2022/10/01 07:37:54;;;;;;;0.40;0.30;;;;;;;11.97;100.00;99436.28;5037582;28;20504;-54
2022/10/01 07:40:20;;;;;;;0.60;0.40;;;;;;;11.92;100.00;99439.13;5036476;28;20451;-54
2022/10/01 07:42:56;;;;;;;1.07;0.40;;;;;;;12.12;100.00;99431.06;5041391;28;20456;-54
2022/10/01 07:45:23;;;;;;;0.50;0.40;;;;;;;11.96;100.00;99413.25;5045865;28;20470;-54
2022/10/01 07:48:00;;;;;;;0.40;0.30;;;;;;;11.81;100.00;99391.75;5049932;28;20450;-55
2022/10/01 07:50:29;;;;;;;16.03;0.50;;;;;;;11.74;100.00;99363.63;5036347;28;20450;-55
2022/10/01 07:52:57;;;;;;;0.30;0.20;;;;;;;11.71;100.00;99395.75;5036201;28;20463;-55
2022/10/01 07:55:25;;;;;;;0.40;0.30;;;;;;;11.78;100.00;99385.66;5042902;28;20521;-56
2022/10/01 07:57:54;;;;;;;1.53;0.50;;;;;;;11.73;100.00;99395.66;5041390;28;20450;-55
2022/10/01 08:00:23;;;;;;;0.40;0.30;;;;;;;11.96;100.00;99397.28;5017939;28;20552;-55
2022/10/01 08:02:52;;;;;;;0.40;0.30;;;;;;;11.85;100.00;99419.94;5037066;28;20452;-55
2022/10/01 08:05:20;;;;;;;0.40;0.30;;;;;;;11.87;100.00;99417.19;5042566;28;20482;-56
2022/10/01 08:07:48;;;;;;;0.60;0.60;;;;;;;12.03;100.00;99404.00;5042200;28;20533;-55
2022/10/01 08:10:17;;;;;;;14.10;0.70;;;;;;;11.81;100.00;99404.19;5035911;28;20517;-55
2022/10/01 08:12:45;;;;;;;0.53;0.53;;;;;;;11.90;100.00;99409.06;5036175;28;20459;-55
2022/10/01 08:15:16;;;;;;;0.50;0.40;;;;;;;11.98;100.00;99400.72;5023121;28;20474;-55
2022/10/01 08:17:43;;;;;;;0.50;0.30;;;;;;;11.79;100.00;99388.28;5036921;28;20475;-52
2022/10/01 08:20:12;;;;;;;7.70;0.40;;;;;;;11.85;100.00;99395.97;5024814;28;20575;-51
2022/10/01 08:22:39;;;;;;;0.40;0.30;;;;;;;11.80;100.00;99382.03;5042805;28;20473;-50
2022/10/01 08:25:08;;;;;;;0.40;0.30;;;;;;;11.96;100.00;99370.63;5037817;28;20975;-52
2022/10/01 08:27:35;;;;;;;0.50;0.30;;;;;;;12.11;100.00;99394.72;5035391;28;21012;-52
2022/10/01 08:30:02;;;;;;;0.40;0.30;;;;;;;11.99;100.00;99389.97;5039495;28;20455;-50
2022/10/01 08:32:30;;;;;;;0.30;0.20;;;;;;;11.94;100.00;99384.03;5042419;28;20455;-50
2022/10/01 08:34:57;;;;;;;0.30;0.20;;;;;;;12.07;100.00;99385.16;5038528;28;20475;-52
2022/10/01 08:37:26;;;;;;;0.30;0.20;;;;;;;12.01;100.00;99401.41;5036394;28;20866;-51
2022/10/01 08:39:53;;;;;;;0.80;0.33;;;;;;;12.09;100.00;99401.91;5038893;28;20495;-51
2022/10/01 08:42:39;;;;;;;0.50;0.40;;;;;;;12.21;100.00;99396.94;5041949;28;20451;-55
2022/10/01 08:45:13;;;;;;;0.40;0.20;;;;;;;12.09;100.00;99401.91;5041585;28;20466;-50
2022/10/01 08:47:45;;;;;;;0.70;0.30;;;;;;;12.26;100.00;99417.06;5036898;28;20447;-50
2022/10/01 08:50:37;;;;;;;0.50;0.30;;;;;;;12.35;100.00;99416.63;5034304;28;20454;-50
2022/10/01 08:53:12;;;;;;;0.50;0.47;;;;;;;12.47;100.00;99420.44;5025318;28;20498;-49
2022/10/01 08:55:40;;;;;;;0.73;0.30;;;;;;;12.33;100.00;99420.28;5041515;28;20474;-54
2022/10/01 08:58:13;;;;;;;2.20;0.60;;;;;;;12.39;100.00;99422.66;5042042;28;20447;-54
2022/10/01 09:00:44;;;;;;;0.60;0.30;;;;;;;12.45;100.00;99423.19;5036825;28;20494;-54
2022/10/01 09:03:12;;;;;;;0.40;0.30;;;;;;;12.49;100.00;99412.41;5034793;28;20491;-54
2022/10/01 09:06:02;;;;;;;0.30;0.20;;;;;;;12.65;100.00;99421.34;5038765;28;20455;-54
2022/10/01 09:08:46;;;;;;;0.40;0.30;;;;;;;12.63;100.00;99417.91;5041859;28;20980;-54
2022/10/01 09:11:28;;;;;;;0.73;0.30;;;;;;;12.66;100.00;99418.59;5041998;28;20481;-54
2022/10/01 09:13:56;;;;;;;0.40;0.40;;;;;;;12.75;100.00;99415.47;5039248;28;21036;-54
2022/10/01 09:16:55;;;;;;;0.40;0.30;;;;;;;12.69;100.00;99421.09;5035018;28;20451;-54
2022/10/01 09:19:43;;;;;;;0.30;0.20;;;;;;;12.85;100.00;99433.63;5000751;28;20486;-54
2022/10/01 09:22:46;;;;;;;0.50;0.40;;;;;;;13.16;100.00;99439.13;5036445;28;20804;-54
2022/10/01 09:25:34;;;;;;;0.70;0.50;;;;;;;13.05;100.00;99449.50;5029665;28;20479;-56
2022/10/01 09:28:20;;;;;;;0.53;0.43;;;;;;;13.07;100.00;99446.75;5041391;28;20452;-56
2022/10/01 09:30:53;;;;;;;0.50;0.40;;;;;;;13.10;100.00;99444.75;5042057;28;20447;-55
2022/10/01 09:33:21;;;;;;;0.50;0.30;;;;;;;13.17;100.00;99439.97;5039183;28;20447;-56
2022/10/01 09:35:56;;;;;;;0.60;0.37;;;;;;;13.36;100.00;99453.22;5039160;28;20509;-56
2022/10/01 09:38:32;;;;;;;0.53;0.40;;;;;;;13.47;100.00;99457.06;5040319;28;20462;-56
2022/10/01 09:40:58;;;;;;;0.67;0.50;;;;;;;13.45;100.00;99455.41;5041140;28;20446;-56
2022/10/01 09:43:30;;;;;;;2.10;0.60;;;;;;;13.61;100.00;99462.50;5023817;28;20500;-56
2022/10/01 09:45:57;;;;;;;1.10;0.50;;;;;;;13.58;100.00;99475.19;5028308;28;20502;-55
2022/10/01 09:48:30;;;;;;;0.60;0.40;;;;;;;13.39;100.00;99466.41;5041331;28;20463;-56
2022/10/01 09:51:05;;;;;;;0.60;0.50;;;;;;;13.45;100.00;99474.09;5036638;28;20940;-57
2022/10/01 09:53:42;;;;;;;0.40;0.23;;;;;;;13.49;100.00;99489.00;5032703;28;20454;-56
2022/10/01 09:56:41;;;;;;;0.40;0.30;;;;;;;13.64;100.00;99480.19;5036529;28;20454;-56
2022/10/01 09:59:18;;;;;;;0.30;0.20;;;;;;;13.62;100.00;99474.91;5027014;28;20486;-56
2022/10/01 10:01:50;;;;;;;0.60;0.50;;;;;;;13.82;100.00;99473.81;5037563;28;20829;-56
2022/10/01 10:04:19;;;;;;;0.30;0.20;;;;;;;13.92;100.00;99471.50;5040720;28;20480;-55
2022/10/01 10:06:46;;;;;;;0.50;0.40;;;;;;;13.97;100.00;99473.91;5038170;28;20458;-55
2022/10/01 10:09:18;;;;;;;0.43;0.30;;;;;;;13.90;100.00;99476.09;5039504;28;20456;-56
2022/10/01 10:11:45;;;;;;;3.13;0.40;;;;;;;13.97;100.00;99468.56;5044701;28;20991;-56
2022/10/01 10:14:18;;;;;;;0.40;0.40;;;;;;;14.06;100.00;99470.75;5044354;28;20466;-56
2022/10/01 10:16:47;;;;;;;0.40;0.30;;;;;;;14.09;100.00;99466.06;5044456;28;20458;-56
2022/10/01 10:19:24;;;;;;;0.40;0.30;;;;;;;14.05;100.00;99474.38;5044452;28;20576;-55
2022/10/01 10:21:53;;;;;;;0.40;0.30;;;;;;;13.90;100.00;99470.72;5040571;28;20453;-55
2022/10/01 10:24:31;;;;;;;0.40;0.30;;;;;;;14.12;100.00;99471.28;5037884;28;20876;-55
2022/10/01 10:26:59;;;;;;;0.93;0.30;;;;;;;13.81;100.00;99482.78;5040310;28;20451;-55
2022/10/01 10:29:29;;;;;;;0.50;0.33;;;;;;;13.96;100.00;99480.22;5044820;28;20454;-55
2022/10/01 10:31:56;;;;;;;1.53;0.33;;;;;;;13.95;100.00;99471.34;5043426;28;20508;-54
2022/10/01 10:34:30;;;;;;;0.50;0.30;;;;;;;14.03;100.00;99471.78;5037493;28;20485;-62
2022/10/01 10:36:59;;;;;;;0.40;0.30;;;;;;;14.04;100.00;99480.66;5038580;28;20472;-55
2022/10/01 10:39:30;;;;;;;0.63;0.30;;;;;;;13.88;100.00;99478.84;5027943;28;20498;-55
2022/10/01 10:41:58;;;;;;;0.87;0.77;;;;;;;14.00;100.00;99479.97;5039058;28;20451;-55
2022/10/01 10:44:30;;;;;;;0.37;0.30;;;;;;;13.92;100.00;99485.72;5043284;28;20483;-55
2022/10/01 10:47:04;;;;;;;0.50;0.40;;;;;;;13.92;100.00;99485.72;5046851;28;20500;-55
2022/10/01 10:49:33;;;;;;;7.50;0.37;;;;;;;13.88;100.00;99486.84;5040596;28;20889;-56
2022/10/01 10:52:00;;;;;;;0.40;0.30;;;;;;;13.87;100.00;99497.63;5042327;28;20459;-55
2022/10/01 10:54:36;;;;;;;2.20;0.60;;;;;;;14.00;100.00;99498.69;5041652;28;20505;-55
2022/10/01 10:57:20;;;;;;;0.40;0.30;;;;;;;14.12;100.00;99499.81;5037254;28;20453;-55
2022/10/01 11:00:17;;;;;;;0.40;0.20;;;;;;;14.03;100.00;99495.84;5037101;28;20491;-54
2022/10/01 11:03:05;;;;;;;0.40;0.30;;;;;;;14.09;100.00;99492.81;5038501;28;20451;-55
2022/10/01 11:05:40;;;;;;;0.60;0.60;;;;;;;14.31;100.00;99500.50;5024503;28;20476;-54
2022/10/01 11:08:11;;;;;;;0.50;0.30;;;;;;;14.42;100.00;99506.09;5043757;28;20446;-55
2022/10/01 11:10:55;;;;;;;0.43;0.30;;;;;;;14.53;100.00;99513.53;5042114;28;20497;-55
2022/10/01 11:13:38;;;;;;;0.40;0.30;;;;;;;14.54;100.00;99509.06;5036185;28;20451;-55
2022/10/01 11:16:28;;;;;;;0.60;0.30;;;;;;;14.55;100.00;99506.28;5036970;28;20462;-55
2022/10/01 11:19:37;;;;;;;0.30;0.20;;;;;;;14.69;100.00;99511.72;5038488;28;20852;-55
2022/10/01 11:22:31;;;;;;;0.50;0.43;;;;;;;14.65;100.00;99512.81;5022365;28;20454;-55
2022/10/01 11:25:00;;;;;;;0.40;0.40;;;;;;;14.67;100.00;99515.44;5026999;28;20467;-55
2022/10/01 11:27:55;;;;;;;0.40;0.30;;;;;;;14.92;100.00;99509.47;5036666;28;20460;-51
2022/10/01 11:30:27;;;;;;;0.57;0.40;;;;;;;14.78;100.00;99518.31;5037889;28;20562;-51
2022/10/01 11:33:09;;;;;;;0.40;0.30;;;;;;;14.69;100.00;99511.72;5043431;28;20452;-52
2022/10/01 11:35:43;;;;;;;0.40;0.30;;;;;;;14.85;100.00;99518.84;5043577;28;20470;-51
2022/10/01 11:38:19;;;;;;;0.50;0.50;;;;;;;14.67;100.00;99518.09;5040250;28;20453;-54
2022/10/01 11:40:49;;;;;;;0.40;0.30;;;;;;;14.67;100.00;99521.66;5036676;28;20501;-53
2022/10/01 11:43:29;;;;;;;0.40;0.30;;;;;;;14.71;100.00;99519.66;5038019;28;20530;-54
2022/10/01 11:46:01;;;;;;;0.40;0.30;;;;;;;14.74;100.00;99512.28;5025018;28;20556;-50